createdAt,value
2022-10-19T00:02:37.225Z,6.05
2022-10-19T00:05:41.749Z,6.00
2022-10-19T00:08:45.429Z,6.04
2022-10-19T00:11:50.439Z,6.07
2022-10-19T00:14:53.779Z,6.13
2022-10-19T00:17:57.001Z,6.18
2022-10-19T00:21:06.306Z,6.21
2022-10-19T00:24:09.972Z,6.37
2022-10-19T00:27:13.269Z,6.53
2022-10-19T00:30:17.717Z,6.65
2022-10-19T00:33:22.633Z,6.76
2022-10-19T00:36:29.515Z,6.79
2022-10-19T00:39:32.698Z,6.80
2022-10-19T00:42:36.015Z,6.70
2022-10-19T00:45:39.236Z,6.67
2022-10-19T00:48:42.610Z,6.68
2022-10-19T00:51:51.305Z,6.73
2022-10-19T00:54:56.769Z,6.76
2022-10-19T00:58:00.804Z,6.79
2022-10-19T01:01:06.117Z,6.85
2022-10-19T01:04:09.555Z,7.00
2022-10-19T01:07:13.709Z,7.13
2022-10-19T01:10:17.791Z,7.25
2022-10-19T01:13:49.973Z,7.39
2022-10-19T01:17:26.932Z,7.53
2022-10-19T01:20:57.731Z,7.68
2022-10-19T01:24:38.454Z,7.75
2022-10-19T01:28:19.535Z,7.82
2022-10-19T01:32:02.607Z,7.80
2022-10-19T01:35:11.689Z,7.64
2022-10-19T01:38:29.790Z,7.48
2022-10-19T01:41:36.939Z,7.33
2022-10-19T01:45:00.199Z,7.24
2022-10-19T01:48:12.465Z,7.08
2022-10-19T01:51:25.965Z,6.98
2022-10-19T01:54:36.438Z,6.86
2022-10-19T01:57:47.481Z,6.77
2022-10-19T02:00:53.926Z,6.71
2022-10-19T02:03:58.433Z,6.63
2022-10-19T02:07:04.563Z,6.60
2022-10-19T02:10:08.695Z,6.61
2022-10-19T02:13:15.670Z,6.58
2022-10-19T02:16:25.751Z,6.57
2022-10-19T02:19:29.108Z,6.55
2022-10-19T02:22:32.584Z,6.48
2022-10-19T02:25:36.911Z,6.46
2022-10-19T02:28:40.130Z,6.43
2022-10-19T02:31:45.492Z,6.39
2022-10-19T02:34:48.675Z,6.37
2022-10-19T02:37:53.052Z,6.34
2022-10-19T02:41:11.713Z,6.33
2022-10-19T02:44:24.442Z,6.39
2022-10-19T02:47:45.544Z,6.56
2022-10-19T02:50:49.734Z,6.79
2022-10-19T02:53:53.261Z,6.95
2022-10-19T02:56:57.843Z,7.05
2022-10-19T03:00:01.209Z,7.04
2022-10-19T03:03:05.184Z,7.05
2022-10-19T03:06:08.352Z,7.01
2022-10-19T03:09:11.838Z,6.90
2022-10-19T03:12:15.850Z,6.78
2022-10-19T03:15:19.835Z,6.69
2022-10-19T03:18:22.836Z,6.63
2022-10-19T03:21:26.176Z,6.51
2022-10-19T03:24:30.828Z,6.54
2022-10-19T03:27:34.415Z,6.60
2022-10-19T03:30:42.611Z,6.50
2022-10-19T03:33:46.151Z,6.54
2022-10-19T03:36:49.338Z,6.47
2022-10-19T03:39:52.890Z,6.45
2022-10-19T03:42:56.203Z,6.42
2022-10-19T03:45:59.447Z,6.40
2022-10-19T03:49:03.844Z,6.36
2022-10-19T03:52:10.162Z,6.37
2022-10-19T03:55:13.716Z,6.25
2022-10-19T03:58:17.051Z,6.04
2022-10-19T04:01:27.220Z,6.06
2022-10-19T04:04:30.628Z,5.92
2022-10-19T04:07:33.840Z,5.93
2022-10-19T04:10:39.205Z,5.99
2022-10-19T04:13:43.062Z,5.90
2022-10-19T04:16:46.347Z,5.84
2022-10-19T04:19:49.832Z,5.79
2022-10-19T04:22:53.691Z,5.82
2022-10-19T04:26:05.023Z,5.80
2022-10-19T04:29:09.212Z,5.86
2022-10-19T04:32:12.549Z,5.81
2022-10-19T04:35:17.804Z,5.71
2022-10-19T04:38:29.910Z,5.72
2022-10-19T04:41:34.993Z,5.66
2022-10-19T04:44:39.736Z,5.66
2022-10-19T04:47:42.974Z,5.70
2022-10-19T04:50:47.683Z,5.70
2022-10-19T04:53:59.613Z,5.66
2022-10-19T04:57:03.023Z,5.59
2022-10-19T05:00:07.977Z,5.55
2022-10-19T05:03:11.150Z,5.59
2022-10-19T05:06:15.948Z,5.61
2022-10-19T05:09:18.995Z,5.51
2022-10-19T05:12:23.988Z,5.49
2022-10-19T05:15:27.089Z,5.49
2022-10-19T05:18:30.681Z,5.42
2022-10-19T05:21:33.895Z,5.41
2022-10-19T05:24:37.299Z,5.42
2022-10-19T05:27:40.540Z,5.43
2022-10-19T05:30:49.082Z,5.45
2022-10-19T05:33:52.323Z,5.51
2022-10-19T05:36:56.719Z,5.57
2022-10-19T05:39:59.862Z,5.67
2022-10-19T05:43:03.094Z,5.74
2022-10-19T05:46:08.603Z,5.87
2022-10-19T05:49:13.102Z,5.93
2022-10-19T05:52:18.070Z,6.06
2022-10-19T05:55:22.301Z,6.11
2022-10-19T05:58:25.897Z,6.21
2022-10-19T06:01:30.560Z,6.41
2022-10-19T06:04:35.070Z,6.52
2022-10-19T06:07:38.100Z,6.82
2022-10-19T06:10:44.085Z,7.29
2022-10-19T06:13:50.606Z,7.63
2022-10-19T06:16:53.863Z,7.96
2022-10-19T06:19:56.926Z,8.19
2022-10-19T06:23:00.625Z,8.48
2022-10-19T06:26:06.909Z,8.79
2022-10-19T06:29:10.542Z,9.03
2022-10-19T06:32:13.734Z,9.19
2022-10-19T06:35:17.487Z,9.40
2022-10-19T06:38:20.570Z,9.86
2022-10-19T06:41:24.209Z,10.40
2022-10-19T06:44:27.551Z,11.14
2022-10-19T06:47:34.121Z,11.75
2022-10-19T06:50:37.867Z,12.20
2022-10-19T06:53:41.306Z,12.66
2022-10-19T06:56:44.536Z,13.09
2022-10-19T06:59:51.449Z,13.63
2022-10-19T07:02:58.327Z,13.75
2022-10-19T07:06:04.209Z,13.83
2022-10-19T07:09:09.819Z,14.18
2022-10-19T07:12:13.126Z,14.60
2022-10-19T07:15:17.394Z,14.72
2022-10-19T07:18:20.583Z,14.63
2022-10-19T07:21:24.598Z,14.58
2022-10-19T07:24:27.933Z,14.68
2022-10-19T07:27:36.709Z,14.69
2022-10-19T07:30:42.454Z,14.74
2022-10-19T07:33:45.527Z,14.99
2022-10-19T07:36:49.380Z,14.84
2022-10-19T07:39:52.811Z,14.99
2022-10-19T07:42:56.269Z,15.18
2022-10-19T07:46:05.930Z,15.37
2022-10-19T07:49:13.966Z,15.54
2022-10-19T07:52:17.249Z,15.47
2022-10-19T07:55:20.535Z,15.42
2022-10-19T07:58:23.609Z,15.43
2022-10-19T08:01:32.712Z,15.39
2022-10-19T08:05:01.240Z,15.52
2022-10-19T08:08:00.025Z,15.57
2022-10-19T08:11:08.660Z,15.70
2022-10-19T08:14:11.687Z,15.75
2022-10-19T08:17:17.785Z,16.23
2022-10-19T08:20:21.360Z,16.63
2022-10-19T08:23:24.964Z,17.16
2022-10-19T08:26:30.225Z,17.64
2022-10-19T08:29:33.803Z,18.02
2022-10-19T08:32:38.104Z,18.27
2022-10-19T08:35:41.696Z,18.68
2022-10-19T08:38:49.125Z,18.83
2022-10-19T08:41:58.769Z,18.55
2022-10-19T08:45:25.975Z,18.82
2022-10-19T08:48:33.530Z,19.09
2022-10-19T08:51:40.384Z,19.52
2022-10-19T08:54:49.840Z,19.24
2022-10-19T08:58:24.860Z,19.43
2022-10-19T09:01:40.912Z,18.98
2022-10-19T09:04:50.532Z,18.94
2022-10-19T09:07:54.916Z,18.81
2022-10-19T09:10:59.149Z,18.72
2022-10-19T09:14:16.393Z,18.65
2022-10-19T09:17:21.649Z,18.79
2022-10-19T09:20:48.159Z,19.22
2022-10-19T09:23:55.713Z,19.49
2022-10-19T09:27:01.004Z,20.06
2022-10-19T09:30:16.056Z,20.41
2022-10-19T09:33:27.273Z,20.43
2022-10-19T09:36:50.011Z,20.66
2022-10-19T09:39:55.782Z,20.95
2022-10-19T09:42:59.710Z,20.99
2022-10-19T09:46:19.774Z,21.05
2022-10-19T09:50:05.628Z,21.09
2022-10-19T09:53:19.515Z,20.48
2022-10-19T09:56:24.385Z,20.94
2022-10-19T09:59:33.234Z,20.38
2022-10-19T10:02:36.762Z,20.92
2022-10-19T10:05:41.313Z,20.83
2022-10-19T10:08:51.183Z,21.07
2022-10-19T10:11:59.419Z,20.99
2022-10-19T10:15:06.261Z,20.48
2022-10-19T10:18:15.824Z,20.06
2022-10-19T10:21:47.229Z,19.80
2022-10-19T10:24:53.811Z,19.47
2022-10-19T10:28:02.912Z,18.82
2022-10-19T10:31:09.265Z,18.17
2022-10-19T10:34:30.268Z,18.52
2022-10-19T10:37:43.744Z,18.80
2022-10-19T10:41:12.188Z,19.47
2022-10-19T10:44:23.389Z,20.06
2022-10-19T10:47:27.876Z,20.30
2022-10-19T10:50:36.200Z,20.19
2022-10-19T10:53:43.526Z,20.44
2022-10-19T10:57:13.318Z,20.18
2022-10-19T11:00:20.236Z,20.19
2022-10-19T11:03:29.003Z,20.57
2022-10-19T11:06:42.271Z,20.72
2022-10-19T11:09:58.738Z,20.40
2022-10-19T11:13:10.419Z,20.24
2022-10-19T11:16:19.784Z,20.40
2022-10-19T11:19:35.405Z,20.53
2022-10-19T11:22:49.305Z,20.65
2022-10-19T11:26:03.111Z,20.89
2022-10-19T11:29:46.021Z,20.81
2022-10-19T11:32:58.858Z,20.06
2022-10-19T11:36:17.938Z,20.11
2022-10-19T11:39:39.512Z,20.06
2022-10-19T11:42:54.931Z,20.05
2022-10-19T11:46:20.274Z,20.14
2022-10-19T11:49:49.311Z,20.28
2022-10-19T11:52:59.362Z,19.89
2022-10-19T11:56:05.811Z,20.43
2022-10-19T11:59:53.613Z,20.44
2022-10-19T12:03:09.059Z,20.10
2022-10-19T12:06:37.495Z,20.42
2022-10-19T12:09:48.311Z,20.55
2022-10-19T12:12:59.088Z,20.69
2022-10-19T12:16:04.450Z,20.97
2022-10-19T12:19:16.469Z,20.53
2022-10-19T12:22:28.394Z,20.09
2022-10-19T12:25:34.642Z,20.00
2022-10-19T12:28:40.636Z,19.93
2022-10-19T12:31:46.494Z,19.97
2022-10-19T12:35:21.627Z,19.63
2022-10-19T12:38:30.853Z,19.85
2022-10-19T12:41:45.130Z,20.04
2022-10-19T12:45:09.730Z,20.02
2022-10-19T12:48:21.767Z,19.94
2022-10-19T12:51:25.542Z,19.58
2022-10-19T12:54:32.081Z,19.82
2022-10-19T12:57:40.368Z,19.58
2022-10-19T13:01:00.774Z,19.43
2022-10-19T13:04:11.632Z,19.51
2022-10-19T13:07:18.512Z,19.70
2022-10-19T13:10:27.681Z,19.60
2022-10-19T13:13:59.192Z,19.47
2022-10-19T13:17:03.172Z,19.42
2022-10-19T13:20:15.424Z,19.49
2022-10-19T13:23:38.734Z,19.26
2022-10-19T13:26:44.925Z,19.18
2022-10-19T13:29:50.264Z,19.28
2022-10-19T13:32:53.005Z,19.14
2022-10-19T13:35:59.369Z,18.97
2022-10-19T13:39:07.896Z,18.90
2022-10-19T13:42:28.493Z,18.90
2022-10-19T13:45:31.713Z,18.52
2022-10-19T13:49:06.919Z,18.63
2022-10-19T13:52:34.166Z,18.57
2022-10-19T13:55:48.582Z,18.48
2022-10-19T13:59:10.689Z,18.28
2022-10-19T14:02:42.357Z,18.08
2022-10-19T14:06:03.469Z,18.00
2022-10-19T14:09:27.365Z,17.91
2022-10-19T14:12:34.131Z,17.93
2022-10-19T14:15:37.179Z,17.68
2022-10-19T14:18:42.465Z,17.48
2022-10-19T14:21:45.866Z,17.28
2022-10-19T14:24:49.324Z,17.09
2022-10-19T14:28:02.192Z,16.98
2022-10-19T14:31:21.921Z,16.78
2022-10-19T14:34:25.004Z,16.73
2022-10-19T14:37:28.414Z,16.72
2022-10-19T14:40:41.864Z,16.56
2022-10-19T14:43:47.815Z,16.45
2022-10-19T14:46:50.875Z,16.29
2022-10-19T14:49:54.223Z,16.24
2022-10-19T14:53:10.413Z,16.06
2022-10-19T14:56:25.165Z,15.95
2022-10-19T14:59:50.929Z,15.88
2022-10-19T15:03:20.747Z,15.86
2022-10-19T15:06:33.047Z,15.62
2022-10-19T15:09:48.275Z,15.61
2022-10-19T15:12:57.518Z,15.41
2022-10-19T15:16:01.115Z,15.37
2022-10-19T15:19:07.430Z,15.09
2022-10-19T15:22:37.819Z,14.88
2022-10-19T15:25:42.879Z,14.60
2022-10-19T15:28:47.656Z,14.63
2022-10-19T15:31:56.422Z,14.83
2022-10-19T15:34:59.675Z,14.89
2022-10-19T15:38:35.766Z,14.77
2022-10-19T15:41:40.693Z,14.68
2022-10-19T15:44:44.935Z,14.68
2022-10-19T15:48:08.174Z,14.42
2022-10-19T15:51:24.077Z,14.24
2022-10-19T15:54:28.214Z,14.21
2022-10-19T15:57:38.108Z,14.06
2022-10-19T16:00:43.331Z,14.03
2022-10-19T16:03:50.322Z,13.76
2022-10-19T16:06:54.894Z,13.73
2022-10-19T16:09:59.973Z,13.48
2022-10-19T16:13:03.442Z,13.46
2022-10-19T16:16:11.796Z,13.66
2022-10-19T16:19:17.523Z,13.70
2022-10-19T16:22:22.797Z,13.49
2022-10-19T16:25:26.396Z,13.17
2022-10-19T16:28:30.853Z,13.43
2022-10-19T16:31:34.756Z,13.34
2022-10-19T16:34:39.046Z,13.21
2022-10-19T16:37:42.997Z,13.17
2022-10-19T16:40:47.806Z,13.29
2022-10-19T16:43:57.561Z,13.07
2022-10-19T16:47:03.186Z,13.11
2022-10-19T16:50:11.676Z,12.83
2022-10-19T16:53:15.778Z,12.63
2022-10-19T16:56:20.574Z,12.47
2022-10-19T16:59:25.609Z,12.57
2022-10-19T17:02:30.681Z,12.56
2022-10-19T17:05:38.552Z,12.67
2022-10-19T17:09:30.230Z,12.70
2022-10-19T17:12:12.406Z,12.76
2022-10-19T17:15:41.520Z,12.63
2022-10-19T17:18:43.326Z,12.44
2022-10-19T17:21:49.338Z,12.34
2022-10-19T17:24:55.937Z,12.40
2022-10-19T17:28:01.228Z,12.25
2022-10-19T17:31:11.459Z,11.98
2022-10-19T17:34:16.179Z,11.78
2022-10-19T17:37:21.285Z,11.89
2022-10-19T17:40:33.623Z,11.78
2022-10-19T17:43:40.087Z,11.46
2022-10-19T17:46:45.029Z,11.29
2022-10-19T17:49:51.023Z,11.01
2022-10-19T17:52:56.751Z,11.13
2022-10-19T17:56:03.860Z,11.34
2022-10-19T17:59:09.615Z,11.27
2022-10-19T18:02:13.701Z,10.87
2022-10-19T18:05:18.745Z,10.67
2022-10-19T18:08:25.979Z,10.34
2022-10-19T18:11:40.359Z,10.19
2022-10-19T18:14:45.662Z,10.14
2022-10-19T18:17:50.105Z,10.08
2022-10-19T18:20:59.711Z,9.82
2022-10-19T18:24:09.148Z,9.58
2022-10-19T18:27:16.792Z,9.43
2022-10-19T18:30:21.874Z,9.20
2022-10-19T18:33:30.232Z,8.90
2022-10-19T18:36:38.896Z,9.02
2022-10-19T18:39:43.457Z,9.00
2022-10-19T18:42:48.648Z,9.09
2022-10-19T18:45:56.376Z,9.25
2022-10-19T18:49:02.081Z,9.29
2022-10-19T18:52:10.325Z,9.19
2022-10-19T18:55:16.566Z,9.19
2022-10-19T18:58:23.832Z,9.23
2022-10-19T19:01:29.956Z,9.27
2022-10-19T19:04:37.199Z,9.20
2022-10-19T19:07:42.128Z,9.15
2022-10-19T19:10:47.796Z,9.14
2022-10-19T19:14:00.426Z,9.53
2022-10-19T19:17:05.488Z,9.44
2022-10-19T19:20:10.858Z,9.26
2022-10-19T19:23:22.051Z,9.44
2022-10-19T19:26:29.308Z,9.24
2022-10-19T19:29:34.284Z,9.08
2022-10-19T19:32:41.907Z,8.84
2022-10-19T19:35:48.346Z,8.58
2022-10-19T19:38:55.630Z,8.54
2022-10-19T19:42:00.322Z,8.45
2022-10-19T19:45:10.523Z,8.24
2022-10-19T19:48:14.951Z,8.20
2022-10-19T19:51:21.574Z,7.82
2022-10-19T19:54:27.294Z,8.02
2022-10-19T19:57:31.893Z,7.76
2022-10-19T20:00:48.344Z,7.79
2022-10-19T20:04:11.809Z,7.70
2022-10-19T20:07:17.160Z,7.64
2022-10-19T20:10:22.889Z,7.56
2022-10-19T20:13:51.699Z,7.34
2022-10-19T20:16:57.809Z,7.47
2022-10-19T20:20:03.623Z,7.76
2022-10-19T20:23:08.645Z,7.75
2022-10-19T20:26:18.969Z,7.85
2022-10-19T20:29:37.710Z,8.06
2022-10-19T20:32:45.798Z,7.88
2022-10-19T20:35:53.050Z,7.62
2022-10-19T20:38:59.343Z,7.57
2022-10-19T20:42:04.063Z,7.54
2022-10-19T20:45:08.473Z,7.51
2022-10-19T20:48:13.110Z,7.51
2022-10-19T20:51:30.930Z,7.58
2022-10-19T20:54:38.481Z,7.62
2022-10-19T20:57:42.141Z,7.50
2022-10-19T21:00:47.367Z,7.39
2022-10-19T21:03:54.985Z,7.34
2022-10-19T21:06:58.786Z,7.25
2022-10-19T21:10:03.148Z,7.04
2022-10-19T21:13:07.983Z,7.01
2022-10-19T21:16:20.490Z,6.42
2022-10-19T21:19:25.846Z,6.71
2022-10-19T21:22:28.986Z,6.53
2022-10-19T21:25:32.475Z,6.31
2022-10-19T21:28:36.257Z,6.13
2022-10-19T21:31:44.127Z,5.99
2022-10-19T21:34:49.459Z,5.94
2022-10-19T21:37:53.034Z,6.15
2022-10-19T21:40:59.652Z,6.29
2022-10-19T21:44:04.165Z,6.42
2022-10-19T21:47:08.067Z,6.57
2022-10-19T21:50:11.499Z,6.72
2022-10-19T21:53:19.531Z,6.93
2022-10-19T21:56:22.916Z,6.94
2022-10-19T21:59:26.416Z,7.02
2022-10-19T22:02:29.722Z,7.04
2022-10-19T22:05:33.605Z,7.04
2022-10-19T22:08:36.986Z,7.12
2022-10-19T22:11:40.975Z,7.05
2022-10-19T22:14:45.362Z,7.05
2022-10-19T22:17:48.699Z,6.97
2022-10-19T22:20:53.517Z,6.88
2022-10-19T22:24:02.390Z,6.87
2022-10-19T22:27:05.583Z,6.84
2022-10-19T22:30:09.543Z,6.79
2022-10-19T22:33:12.708Z,6.70
2022-10-19T22:36:16.665Z,6.58
2022-10-19T22:39:21.593Z,6.51
2022-10-19T22:42:25.071Z,6.41
2022-10-19T22:45:29.666Z,6.17
2022-10-19T22:48:35.419Z,6.13
2022-10-19T22:51:38.866Z,5.95
2022-10-19T22:54:43.733Z,5.70
2022-10-19T22:57:47.946Z,5.55
2022-10-19T23:01:06.006Z,5.48
2022-10-19T23:04:09.233Z,5.34
2022-10-19T23:07:12.888Z,5.19
2022-10-19T23:10:16.366Z,5.06
2022-10-19T23:13:20.971Z,4.94
2022-10-19T23:16:24.143Z,4.77
2022-10-19T23:19:28.224Z,4.79
2022-10-19T23:22:31.804Z,4.74
2022-10-19T23:25:35.726Z,4.76
2022-10-19T23:28:40.993Z,4.66
2022-10-19T23:31:44.420Z,4.54
2022-10-19T23:34:48.518Z,4.46
2022-10-19T23:37:52.005Z,4.45
2022-10-19T23:40:55.437Z,4.36
2022-10-19T23:43:58.955Z,4.33
2022-10-19T23:47:02.038Z,4.28
2022-10-19T23:50:06.254Z,4.17
2022-10-19T23:53:09.601Z,4.19
2022-10-19T23:56:14.759Z,4.16
2022-10-19T23:59:18.052Z,4.09
